createdAt,value
2023-01-10T00:00:20.560Z,46.70
2023-01-10T00:02:51.566Z,52.90
2023-01-10T00:05:22.403Z,46.30
2023-01-10T00:07:53.056Z,44.50
2023-01-10T00:10:23.768Z,53.80
2023-01-10T00:13:12.686Z,54.20
2023-01-10T00:15:43.554Z,52.10
2023-01-10T00:18:14.533Z,48.50
2023-01-10T00:20:46.013Z,51.10
2023-01-10T00:23:17.408Z,46.30
2023-01-10T00:25:48.819Z,49.50
2023-01-10T00:28:20.705Z,50.80
2023-01-10T00:31:01.045Z,49.30
2023-01-10T00:33:32.914Z,50.60
2023-01-10T00:36:04.869Z,52.50
2023-01-10T00:38:37.965Z,52.70
2023-01-10T00:41:29.217Z,53.30
2023-01-10T00:43:59.951Z,50.00
2023-01-10T00:46:30.965Z,54.10
2023-01-10T00:49:06.909Z,48.20
2023-01-10T00:51:37.641Z,45.10
2023-01-10T00:54:09.979Z,53.20
2023-01-10T00:56:41.040Z,54.60
2023-01-10T00:59:12.018Z,53.20
2023-01-10T01:01:42.815Z,53.50
2023-01-10T01:04:13.557Z,49.60
2023-01-10T01:06:47.819Z,51.80
2023-01-10T01:09:21.522Z,50.10
2023-01-10T01:11:52.272Z,50.30
2023-01-10T01:14:23.082Z,58.60
2023-01-10T01:16:53.811Z,59.30
2023-01-10T01:19:24.616Z,57.00
2023-01-10T01:21:55.338Z,56.20
2023-01-10T01:24:25.973Z,55.20
2023-01-10T01:26:56.651Z,56.80
2023-01-10T01:29:35.209Z,50.40
2023-01-10T01:32:09.870Z,59.00
2023-01-10T01:34:41.132Z,54.00
2023-01-10T01:37:11.929Z,54.70
2023-01-10T01:39:42.588Z,60.00
2023-01-10T01:42:25.442Z,55.80
2023-01-10T01:45:31.093Z,56.80
2023-01-10T01:48:07.923Z,53.70
2023-01-10T01:50:43.455Z,64.60
2023-01-10T01:53:19.855Z,64.20
2023-01-10T01:55:52.689Z,62.60
2023-01-10T01:58:31.559Z,62.70
2023-01-10T02:01:03.509Z,60.50
2023-01-10T02:03:35.164Z,61.30
2023-01-10T02:06:07.097Z,58.90
2023-01-10T02:08:38.868Z,61.90
2023-01-10T02:11:11.860Z,66.80
2023-01-10T02:13:46.318Z,60.70
2023-01-10T02:16:17.409Z,61.10
2023-01-10T02:18:48.304Z,62.80
2023-01-10T02:21:54.479Z,56.20
2023-01-10T02:24:58.310Z,71.40
2023-01-10T02:27:38.570Z,65.60
2023-01-10T02:30:51.799Z,63.00
2023-01-10T02:33:31.412Z,66.30
2023-01-10T02:36:17.378Z,63.80
2023-01-10T02:38:59.182Z,66.70
2023-01-10T02:41:37.385Z,61.90
2023-01-10T02:44:13.454Z,68.10
2023-01-10T02:46:45.830Z,63.40
2023-01-10T02:49:16.661Z,66.70
2023-01-10T02:51:47.374Z,61.70
2023-01-10T02:54:20.987Z,65.50
2023-01-10T02:57:21.012Z,60.20
2023-01-10T03:00:16.429Z,61.40
2023-01-10T03:03:01.710Z,62.40
2023-01-10T03:05:48.178Z,61.60
2023-01-10T03:08:30.804Z,64.00
2023-01-10T03:11:04.039Z,59.60
2023-01-10T03:13:40.367Z,58.00
2023-01-10T03:16:16.643Z,63.00
2023-01-10T03:18:52.993Z,65.50
2023-01-10T03:21:25.842Z,61.50
2023-01-10T03:23:59.659Z,60.10
2023-01-10T03:26:39.584Z,71.10
2023-01-10T03:29:14.180Z,62.60
2023-01-10T03:31:50.328Z,61.10
2023-01-10T03:34:21.404Z,59.00
2023-01-10T03:37:01.322Z,61.90
2023-01-10T03:39:39.304Z,59.10
2023-01-10T03:42:14.205Z,55.00
2023-01-10T03:44:54.670Z,58.50
2023-01-10T03:47:33.794Z,59.60
2023-01-10T03:50:08.316Z,63.10
2023-01-10T03:52:41.745Z,62.00
2023-01-10T03:55:16.732Z,64.80
2023-01-10T03:57:50.018Z,72.50
2023-01-10T04:00:22.525Z,64.70
2023-01-10T04:02:53.240Z,68.30
2023-01-10T04:05:24.002Z,67.80
2023-01-10T04:07:54.645Z,77.20
2023-01-10T04:10:27.269Z,68.60
2023-01-10T04:13:00.300Z,65.70
2023-01-10T04:15:31.462Z,72.10
2023-01-10T04:18:02.283Z,66.20
2023-01-10T04:20:33.171Z,71.30
2023-01-10T04:23:04.004Z,71.00
2023-01-10T04:25:34.736Z,66.50
2023-01-10T04:28:05.547Z,69.30
2023-01-10T04:30:36.357Z,71.50
2023-01-10T04:33:07.364Z,65.40
2023-01-10T04:35:38.100Z,61.20
2023-01-10T04:38:08.879Z,67.80
2023-01-10T04:40:39.560Z,67.50
2023-01-10T04:43:10.392Z,65.50
2023-01-10T04:45:41.076Z,68.50
2023-01-10T04:48:11.983Z,66.70
2023-01-10T04:50:42.754Z,68.50
2023-01-10T04:53:13.447Z,64.70
2023-01-10T04:55:44.210Z,62.00
2023-01-10T04:58:15.459Z,65.90
2023-01-10T05:00:46.224Z,74.50
2023-01-10T05:03:20.376Z,63.20
2023-01-10T05:05:51.219Z,58.20
2023-01-10T05:08:21.963Z,61.60
2023-01-10T05:10:52.629Z,65.30
2023-01-10T05:13:23.398Z,63.40
2023-01-10T05:15:56.553Z,57.10
2023-01-10T05:18:27.898Z,60.90
2023-01-10T05:21:04.907Z,59.50
2023-01-10T05:23:36.186Z,68.50
2023-01-10T05:26:10.606Z,71.60
2023-01-10T05:28:42.129Z,65.90
2023-01-10T05:31:16.643Z,61.30
2023-01-10T05:33:52.150Z,57.20
2023-01-10T05:36:22.960Z,60.60
2023-01-10T05:38:53.764Z,52.60
2023-01-10T05:41:24.689Z,52.90
2023-01-10T05:43:55.498Z,67.80
2023-01-10T05:46:26.226Z,60.70
2023-01-10T05:48:57.372Z,59.10
2023-01-10T05:51:28.336Z,62.60
2023-01-10T05:53:59.986Z,65.80
2023-01-10T05:56:30.710Z,57.90
2023-01-10T05:59:09.643Z,60.70
2023-01-10T06:01:44.978Z,60.30
2023-01-10T06:04:15.933Z,60.20
2023-01-10T06:06:46.654Z,60.60
2023-01-10T06:09:17.398Z,67.80
2023-01-10T06:11:48.185Z,62.20
2023-01-10T06:14:19.631Z,59.70
2023-01-10T06:16:50.795Z,62.60
2023-01-10T06:19:22.030Z,63.70
2023-01-10T06:21:53.069Z,58.20
2023-01-10T06:24:23.851Z,65.10
2023-01-10T06:26:54.631Z,66.20
2023-01-10T06:29:26.067Z,60.50
2023-01-10T06:31:57.150Z,59.50
2023-01-10T06:34:29.281Z,65.80
2023-01-10T06:37:00.122Z,61.60
2023-01-10T06:39:31.279Z,63.80
2023-01-10T06:42:02.126Z,55.20
2023-01-10T06:44:32.880Z,57.40
2023-01-10T06:47:03.744Z,58.60
2023-01-10T06:49:34.541Z,58.90
2023-01-10T06:52:05.558Z,60.60
2023-01-10T06:54:36.545Z,55.20
2023-01-10T06:57:07.407Z,57.30
2023-01-10T06:59:38.117Z,61.10
2023-01-10T07:02:11.014Z,59.50
2023-01-10T07:04:41.783Z,62.40
2023-01-10T07:07:12.731Z,58.50
2023-01-10T07:09:43.489Z,62.30
2023-01-10T07:12:14.310Z,59.80
2023-01-10T07:14:45.031Z,58.70
2023-01-10T07:17:15.817Z,63.40
2023-01-10T07:19:46.548Z,54.70
2023-01-10T07:22:17.208Z,58.70
2023-01-10T07:24:47.821Z,58.80
2023-01-10T07:27:18.649Z,63.60
2023-01-10T07:29:49.358Z,52.70
2023-01-10T07:32:20.079Z,57.70
2023-01-10T07:34:50.878Z,60.70
2023-01-10T07:37:21.588Z,63.40
2023-01-10T07:39:52.483Z,54.90
2023-01-10T07:42:23.255Z,62.30
2023-01-10T07:44:54.048Z,56.70
2023-01-10T07:47:25.082Z,58.80
2023-01-10T07:49:55.851Z,56.40
2023-01-10T07:52:26.740Z,48.50
2023-01-10T07:54:57.528Z,50.80
2023-01-10T07:57:28.757Z,52.80
2023-01-10T07:59:59.633Z,52.20
2023-01-10T08:02:30.470Z,54.00
2023-01-10T08:05:01.311Z,46.10
2023-01-10T08:07:33.049Z,47.70
2023-01-10T08:10:04.235Z,44.30
2023-01-10T08:12:35.511Z,45.40
2023-01-10T08:15:07.774Z,46.30
2023-01-10T08:17:39.103Z,42.50
2023-01-10T08:20:12.246Z,45.80
2023-01-10T08:22:43.069Z,44.10
2023-01-10T08:25:13.843Z,43.00
2023-01-10T08:27:44.846Z,52.20
2023-01-10T08:30:17.185Z,43.40
2023-01-10T08:32:48.292Z,43.00
2023-01-10T08:35:19.374Z,44.00
2023-01-10T08:37:50.183Z,41.30
2023-01-10T08:40:21.584Z,41.50
2023-01-10T08:43:00.564Z,41.70
2023-01-10T08:45:32.229Z,39.10
2023-01-10T08:48:03.959Z,42.30
2023-01-10T08:50:35.104Z,43.00
2023-01-10T08:53:06.435Z,36.30
2023-01-10T08:55:38.944Z,39.90
2023-01-10T08:58:10.509Z,36.80
2023-01-10T09:00:41.271Z,43.70
2023-01-10T09:03:12.037Z,43.50
2023-01-10T09:05:43.434Z,41.80
2023-01-10T09:08:17.334Z,40.40
2023-01-10T09:10:48.540Z,41.30
2023-01-10T09:13:19.688Z,42.50
2023-01-10T09:15:52.611Z,40.50
2023-01-10T09:18:24.405Z,41.10
2023-01-10T09:20:55.721Z,41.70
2023-01-10T09:23:27.058Z,40.60
2023-01-10T09:25:58.906Z,41.50
2023-01-10T09:28:30.035Z,48.70
2023-01-10T09:31:04.479Z,47.90
2023-01-10T09:33:46.633Z,46.60
2023-01-10T09:36:18.498Z,42.80
2023-01-10T09:38:49.502Z,40.70
2023-01-10T09:41:48.237Z,44.20
2023-01-10T09:44:26.536Z,40.30
2023-01-10T09:47:21.469Z,42.50
2023-01-10T09:50:02.467Z,44.10
2023-01-10T09:52:45.832Z,41.40
2023-01-10T09:55:28.030Z,44.60
2023-01-10T09:58:01.591Z,42.80
2023-01-10T10:00:42.005Z,44.80
2023-01-10T10:03:24.016Z,46.50
2023-01-10T10:06:03.696Z,41.20
2023-01-10T10:08:42.564Z,44.90
2023-01-10T10:11:31.786Z,43.60
2023-01-10T10:14:10.144Z,41.20
2023-01-10T10:17:08.127Z,43.90
2023-01-10T10:19:54.437Z,45.30
2023-01-10T10:22:32.878Z,45.20
2023-01-10T10:25:14.596Z,44.10
2023-01-10T10:28:06.917Z,39.70
2023-01-10T10:30:50.219Z,47.20
2023-01-10T10:33:44.422Z,48.90
2023-01-10T10:36:21.705Z,38.30
2023-01-10T10:38:56.276Z,42.50
2023-01-10T10:41:34.383Z,40.00
2023-01-10T10:44:17.554Z,39.20
2023-01-10T10:46:48.982Z,42.70
2023-01-10T10:49:32.021Z,44.40
2023-01-10T10:52:04.072Z,45.10
2023-01-10T10:54:37.135Z,46.80
2023-01-10T10:57:07.997Z,39.60
2023-01-10T10:59:39.466Z,41.00
2023-01-10T11:02:24.814Z,48.00
2023-01-10T11:04:59.694Z,40.90
2023-01-10T11:07:34.641Z,41.10
2023-01-10T11:10:33.019Z,39.40
2023-01-10T11:13:05.878Z,46.60
2023-01-10T11:15:43.594Z,47.30
2023-01-10T11:18:20.781Z,37.10
2023-01-10T11:20:59.113Z,48.40
2023-01-10T11:23:42.945Z,44.90
2023-01-10T11:26:26.606Z,40.20
2023-01-10T11:29:15.737Z,44.50
2023-01-10T11:31:48.433Z,38.10
2023-01-10T11:34:26.848Z,40.50
2023-01-10T11:37:03.514Z,38.20
2023-01-10T11:39:35.400Z,46.60
2023-01-10T11:42:31.088Z,37.00
2023-01-10T11:45:22.466Z,33.80
2023-01-10T11:47:56.696Z,30.60
2023-01-10T11:50:33.536Z,39.60
2023-01-10T11:53:05.641Z,40.80
2023-01-10T11:55:39.456Z,38.50
2023-01-10T11:58:13.903Z,46.60
2023-01-10T12:00:48.519Z,44.00
2023-01-10T12:03:28.392Z,43.40
2023-01-10T12:06:02.024Z,42.40
2023-01-10T12:08:42.624Z,40.70
2023-01-10T12:11:27.716Z,41.40
2023-01-10T12:13:59.955Z,42.30
2023-01-10T12:16:33.104Z,36.00
2023-01-10T12:19:06.453Z,39.70
2023-01-10T12:21:44.551Z,41.60
2023-01-10T12:24:29.726Z,44.10
2023-01-10T12:27:03.162Z,50.20
2023-01-10T12:29:40.646Z,40.30
2023-01-10T12:32:24.293Z,35.60
2023-01-10T12:35:02.386Z,34.90
2023-01-10T12:37:41.651Z,37.60
2023-01-10T12:40:17.251Z,43.90
2023-01-10T12:43:13.065Z,37.70
2023-01-10T12:45:52.014Z,34.20
2023-01-10T12:48:33.803Z,37.60
2023-01-10T12:51:13.979Z,39.30
2023-01-10T12:53:49.566Z,39.60
2023-01-10T12:56:21.215Z,43.50
2023-01-10T12:58:55.116Z,39.10
2023-01-10T13:01:32.683Z,37.80
2023-01-10T13:04:08.080Z,49.40
2023-01-10T13:06:41.692Z,40.60
2023-01-10T13:09:18.178Z,44.70
2023-01-10T13:11:56.445Z,38.10
2023-01-10T13:14:31.966Z,45.00
2023-01-10T13:17:18.211Z,44.80
2023-01-10T13:20:26.917Z,41.70
2023-01-10T13:22:59.900Z,41.00
2023-01-10T13:25:32.658Z,43.50
2023-01-10T13:28:07.019Z,39.00
2023-01-10T13:30:41.778Z,39.00
2023-01-10T13:33:24.991Z,47.30
2023-01-10T13:35:58.848Z,38.20
2023-01-10T13:38:36.541Z,38.60
2023-01-10T13:41:29.927Z,37.30
2023-01-10T13:44:06.877Z,35.40
2023-01-10T13:46:54.238Z,36.00
2023-01-10T13:49:50.979Z,31.90
2023-01-10T13:52:32.961Z,40.20
2023-01-10T13:55:22.288Z,33.70
2023-01-10T13:57:55.544Z,33.90
2023-01-10T14:01:02.471Z,33.10
2023-01-10T14:03:48.956Z,33.30
2023-01-10T14:06:41.300Z,44.20
2023-01-10T14:09:36.328Z,38.40
2023-01-10T14:12:18.032Z,35.20
2023-01-10T14:14:57.307Z,37.50
2023-01-10T14:17:31.387Z,32.60
2023-01-10T14:20:07.542Z,32.90
2023-01-10T14:22:40.669Z,37.20
2023-01-10T14:25:20.973Z,30.00
2023-01-10T14:27:53.716Z,32.40
2023-01-10T14:30:27.328Z,29.00
2023-01-10T14:33:02.445Z,30.00
2023-01-10T14:35:39.228Z,26.00
2023-01-10T14:38:19.692Z,28.30
2023-01-10T14:40:54.047Z,32.40
2023-01-10T14:43:28.216Z,30.30
2023-01-10T14:46:04.538Z,28.10
2023-01-10T14:48:36.797Z,23.90
2023-01-10T14:51:21.317Z,27.60
2023-01-10T14:53:58.390Z,26.50
2023-01-10T14:56:31.035Z,28.70
2023-01-10T14:59:01.780Z,26.30
2023-01-10T15:01:33.371Z,27.50
2023-01-10T15:04:04.234Z,32.50
2023-01-10T15:06:53.451Z,27.50
2023-01-10T15:09:24.399Z,29.30
2023-01-10T15:11:56.769Z,27.80
2023-01-10T15:14:27.977Z,32.70
2023-01-10T15:17:02.427Z,29.50
2023-01-10T15:19:35.890Z,28.40
2023-01-10T15:22:19.765Z,29.80
2023-01-10T15:25:02.246Z,30.50
2023-01-10T15:27:34.704Z,28.20
2023-01-10T15:30:11.341Z,32.80
2023-01-10T15:32:44.027Z,35.00
2023-01-10T15:35:20.211Z,31.40
2023-01-10T15:37:55.159Z,31.30
2023-01-10T15:40:31.837Z,33.50
2023-01-10T15:43:26.124Z,34.10
2023-01-10T15:45:57.705Z,29.20
2023-01-10T15:48:34.857Z,30.80
2023-01-10T15:51:15.266Z,32.80
2023-01-10T15:54:04.310Z,37.20
2023-01-10T15:56:41.685Z,32.70
2023-01-10T15:59:27.400Z,33.20
2023-01-10T16:02:02.181Z,41.90
2023-01-10T16:04:36.541Z,39.50
2023-01-10T16:07:16.687Z,38.20
2023-01-10T16:09:53.717Z,34.80
2023-01-10T16:12:54.444Z,37.60
2023-01-10T16:15:27.609Z,35.80
2023-01-10T16:17:58.763Z,38.40
2023-01-10T16:20:32.518Z,43.90
2023-01-10T16:23:05.049Z,40.70
2023-01-10T16:25:39.358Z,39.90
2023-01-10T16:28:14.906Z,35.50
2023-01-10T16:30:46.881Z,37.80
2023-01-10T16:33:23.298Z,39.40
2023-01-10T16:35:55.990Z,33.40
2023-01-10T16:38:28.291Z,39.80
2023-01-10T16:41:22.130Z,35.50
2023-01-10T16:43:53.978Z,36.60
2023-01-10T16:46:25.840Z,36.40
2023-01-10T16:48:56.629Z,42.50
2023-01-10T16:51:30.358Z,39.50
2023-01-10T16:54:01.553Z,42.30
2023-01-10T16:56:32.671Z,47.30
2023-01-10T16:59:06.216Z,45.80
2023-01-10T17:01:39.980Z,41.20
2023-01-10T17:04:13.550Z,44.50
2023-01-10T17:06:44.258Z,42.30
2023-01-10T17:09:21.640Z,44.90
2023-01-10T17:12:02.004Z,39.80
2023-01-10T17:14:34.348Z,42.10
2023-01-10T17:17:05.347Z,37.30
2023-01-10T17:19:37.279Z,44.20
2023-01-10T17:22:07.989Z,37.20
2023-01-10T17:24:38.932Z,39.20
2023-01-10T17:27:09.668Z,40.00
2023-01-10T17:29:40.731Z,39.00
2023-01-10T17:32:11.534Z,39.50
2023-01-10T17:34:42.631Z,36.80
2023-01-10T17:37:13.328Z,40.70
2023-01-10T17:39:44.063Z,48.70
2023-01-10T17:42:15.377Z,38.60
2023-01-10T17:44:47.316Z,43.50
2023-01-10T17:47:19.361Z,39.00
2023-01-10T17:49:50.142Z,42.10
2023-01-10T17:52:20.850Z,42.60
2023-01-10T17:54:51.934Z,40.40
2023-01-10T17:57:24.060Z,43.10
2023-01-10T17:59:54.760Z,44.70
2023-01-10T18:02:25.697Z,44.80
2023-01-10T18:04:56.550Z,37.20
2023-01-10T18:07:27.265Z,42.30
2023-01-10T18:09:58.106Z,39.90
2023-01-10T18:12:28.865Z,41.40
2023-01-10T18:14:59.958Z,39.00
2023-01-10T18:17:30.788Z,36.90
2023-01-10T18:20:01.508Z,40.50
2023-01-10T18:22:49.633Z,41.70
2023-01-10T18:25:20.483Z,41.50
2023-01-10T18:27:52.421Z,40.00
2023-01-10T18:30:24.454Z,41.50
2023-01-10T18:32:56.610Z,40.40
2023-01-10T18:35:28.134Z,41.20
2023-01-10T18:37:59.505Z,40.60
2023-01-10T18:40:30.276Z,38.80
2023-01-10T18:43:01.070Z,40.60
2023-01-10T18:45:32.023Z,40.40
2023-01-10T18:48:05.276Z,43.10
2023-01-10T18:50:36.146Z,40.60
2023-01-10T18:53:07.378Z,43.70
2023-01-10T18:55:38.151Z,38.30
2023-01-10T18:58:10.448Z,39.90
2023-01-10T19:00:43.023Z,40.30
2023-01-10T19:05:45.730Z,41.40
2023-01-10T19:08:16.818Z,35.70
2023-01-10T19:11:11.945Z,34.10
2023-01-10T19:13:39.441Z,36.30
2023-01-10T19:16:16.262Z,38.90
2023-01-10T19:18:49.969Z,37.90
2023-01-10T19:21:21.084Z,41.10
2023-01-10T19:23:55.107Z,38.40
2023-01-10T19:26:26.471Z,40.70
2023-01-10T19:28:57.415Z,43.20
2023-01-10T19:31:30.039Z,42.20
2023-01-10T19:34:02.790Z,44.90
2023-01-10T19:36:34.835Z,36.40
2023-01-10T19:39:07.175Z,46.20
2023-01-10T19:41:38.673Z,39.80
2023-01-10T19:44:13.159Z,35.70
2023-01-10T19:46:45.461Z,44.40
2023-01-10T19:49:19.817Z,85.50
2023-01-10T19:51:53.775Z,57.90
2023-01-10T19:54:25.621Z,42.50
2023-01-10T19:56:56.684Z,43.40
2023-01-10T19:59:27.888Z,44.90
2023-01-10T20:01:59.459Z,39.90
2023-01-10T20:04:30.219Z,47.40
2023-01-10T20:07:01.013Z,41.90
2023-01-10T20:09:33.500Z,47.60
2023-01-10T20:12:04.458Z,41.70
2023-01-10T20:14:35.428Z,41.00
2023-01-10T20:17:08.016Z,45.10
2023-01-10T20:19:40.680Z,42.20
2023-01-10T20:22:11.890Z,47.90
2023-01-10T20:24:42.674Z,46.40
2023-01-10T20:27:13.354Z,46.70
2023-01-10T20:29:45.677Z,43.10
2023-01-10T20:32:17.246Z,43.00
2023-01-10T20:34:49.778Z,53.40
2023-01-10T20:37:21.152Z,53.60
2023-01-10T20:39:51.795Z,53.30
2023-01-10T20:42:22.611Z,53.50
2023-01-10T20:44:53.675Z,52.60
2023-01-10T20:47:24.307Z,57.70
2023-01-10T20:49:54.994Z,54.20
2023-01-10T20:52:25.825Z,54.50
2023-01-10T20:54:56.859Z,51.10
2023-01-10T20:57:27.608Z,50.70
2023-01-10T20:59:58.317Z,54.00
2023-01-10T21:02:29.147Z,55.60
2023-01-10T21:05:00.055Z,61.00
2023-01-10T21:07:33.500Z,55.70
2023-01-10T21:10:04.660Z,55.00
2023-01-10T21:12:35.816Z,54.60
2023-01-10T21:15:09.659Z,57.00
2023-01-10T21:17:42.112Z,58.80
2023-01-10T21:20:14.468Z,57.40
2023-01-10T21:22:46.734Z,56.90
2023-01-10T21:25:17.595Z,47.30
2023-01-10T21:27:48.566Z,55.10
2023-01-10T21:30:20.305Z,44.20
2023-01-10T21:32:51.156Z,50.10
2023-01-10T21:35:21.967Z,50.80
2023-01-10T21:37:52.712Z,51.40
2023-01-10T21:40:23.417Z,46.40
2023-01-10T21:42:54.236Z,49.30
2023-01-10T21:45:25.359Z,46.80
2023-01-10T21:47:57.549Z,55.20
2023-01-10T21:50:33.739Z,48.70
2023-01-10T21:53:04.992Z,50.00
2023-01-10T21:55:36.577Z,53.00
2023-01-10T21:58:07.387Z,49.00
2023-01-10T22:00:38.440Z,50.40
2023-01-10T22:03:09.409Z,49.00
2023-01-10T22:05:40.228Z,46.40
2023-01-10T22:08:11.107Z,46.10
2023-01-10T22:10:42.298Z,46.90
2023-01-10T22:13:13.092Z,44.10
2023-01-10T22:15:44.546Z,41.60
2023-01-10T22:18:17.663Z,40.40
2023-01-10T22:20:48.439Z,45.00
2023-01-10T22:23:19.499Z,49.90
2023-01-10T22:26:00.592Z,48.50
2023-01-10T22:28:31.941Z,47.00
2023-01-10T22:31:02.746Z,43.80
2023-01-10T22:33:36.158Z,43.70
2023-01-10T22:36:09.023Z,46.80
2023-01-10T22:38:41.712Z,41.00
2023-01-10T22:41:14.097Z,45.30
2023-01-10T22:43:45.517Z,49.60
2023-01-10T22:46:16.765Z,46.70
2023-01-10T22:48:47.689Z,48.70
2023-01-10T22:51:20.425Z,42.90
2023-01-10T22:53:54.298Z,43.50
2023-01-10T22:56:25.535Z,47.80
2023-01-10T22:58:56.257Z,49.90
2023-01-10T23:01:28.074Z,48.50
2023-01-10T23:03:58.924Z,46.70
2023-01-10T23:06:29.938Z,41.20
2023-01-10T23:09:00.738Z,47.30
2023-01-10T23:11:31.399Z,47.10
2023-01-10T23:14:02.120Z,44.30
2023-01-10T23:16:32.873Z,45.10
2023-01-10T23:19:03.830Z,43.30
2023-01-10T23:21:34.661Z,55.90
2023-01-10T23:24:05.709Z,43.00
2023-01-10T23:26:36.551Z,43.50
2023-01-10T23:29:07.287Z,50.10
2023-01-10T23:31:38.123Z,51.30
2023-01-10T23:34:09.282Z,46.50
2023-01-10T23:36:40.020Z,41.20
2023-01-10T23:39:10.833Z,39.30
2023-01-10T23:41:41.568Z,38.00
2023-01-10T23:44:12.301Z,37.90
2023-01-10T23:46:43.107Z,43.20
2023-01-10T23:49:13.945Z,40.10
2023-01-10T23:51:44.622Z,45.80
2023-01-10T23:54:17.357Z,39.90
2023-01-10T23:56:48.079Z,42.30
2023-01-10T23:59:18.803Z,38.60
